sensor_id;sensor_type;location;lat;lon;timestamp;P1;durP1;ratioP1;P2;durP2;ratioP2
51927;SDS011;37953;52.806;18.270;2022-12-08T00:01:17;7.88;;;2.70;;
51927;SDS011;37953;52.806;18.270;2022-12-08T00:03:45;11.10;;;3.28;;
51927;SDS011;37953;52.806;18.270;2022-12-08T00:06:33;10.77;;;3.40;;
51927;SDS011;37953;52.806;18.270;2022-12-08T00:12:00;7.93;;;2.70;;
51927;SDS011;37953;52.806;18.270;2022-12-08T00:14:36;13.20;;;3.15;;
51927;SDS011;37953;52.806;18.270;2022-12-08T00:17:04;8.70;;;2.65;;
51927;SDS011;37953;52.806;18.270;2022-12-08T00:19:37;9.07;;;2.50;;
51927;SDS011;37953;52.806;18.270;2022-12-08T00:22:04;7.80;;;2.50;;
51927;SDS011;37953;52.806;18.270;2022-12-08T00:24:32;9.93;;;2.17;;
51927;SDS011;37953;52.806;18.270;2022-12-08T00:27:00;9.07;;;2.33;;
51927;SDS011;37953;52.806;18.270;2022-12-08T00:29:26;7.00;;;2.38;;
51927;SDS011;37953;52.806;18.270;2022-12-08T00:31:52;8.25;;;3.00;;
51927;SDS011;37953;52.806;18.270;2022-12-08T00:34:18;8.32;;;2.45;;
51927;SDS011;37953;52.806;18.270;2022-12-08T00:36:45;11.85;;;2.53;;
51927;SDS011;37953;52.806;18.270;2022-12-08T00:39:11;8.23;;;2.20;;
51927;SDS011;37953;52.806;18.270;2022-12-08T00:41:39;9.07;;;2.63;;
51927;SDS011;37953;52.806;18.270;2022-12-08T00:44:23;9.70;;;3.53;;
51927;SDS011;37953;52.806;18.270;2022-12-08T00:46:50;6.97;;;2.67;;
51927;SDS011;37953;52.806;18.270;2022-12-08T00:49:16;10.98;;;3.20;;
51927;SDS011;37953;52.806;18.270;2022-12-08T00:51:43;14.18;;;3.30;;
51927;SDS011;37953;52.806;18.270;2022-12-08T00:54:09;7.72;;;2.88;;
51927;SDS011;37953;52.806;18.270;2022-12-08T00:56:36;9.43;;;2.90;;
51927;SDS011;37953;52.806;18.270;2022-12-08T00:59:08;8.27;;;2.90;;
51927;SDS011;37953;52.806;18.270;2022-12-08T01:01:34;7.65;;;2.80;;
51927;SDS011;37953;52.806;18.270;2022-12-08T01:04:05;8.75;;;2.58;;
51927;SDS011;37953;52.806;18.270;2022-12-08T01:06:35;6.32;;;2.70;;
51927;SDS011;37953;52.806;18.270;2022-12-08T01:09:02;4.30;;;1.80;;
51927;SDS011;37953;52.806;18.270;2022-12-08T01:11:30;10.10;;;2.75;;
51927;SDS011;37953;52.806;18.270;2022-12-08T01:13:56;6.68;;;2.42;;
51927;SDS011;37953;52.806;18.270;2022-12-08T01:16:24;6.75;;;2.47;;
51927;SDS011;37953;52.806;18.270;2022-12-08T01:18:51;4.72;;;2.22;;
51927;SDS011;37953;52.806;18.270;2022-12-08T01:21:17;8.27;;;2.75;;
51927;SDS011;37953;52.806;18.270;2022-12-08T01:23:43;7.78;;;2.58;;
51927;SDS011;37953;52.806;18.270;2022-12-08T01:26:12;7.85;;;2.63;;
51927;SDS011;37953;52.806;18.270;2022-12-08T01:28:39;5.72;;;2.60;;
51927;SDS011;37953;52.806;18.270;2022-12-08T01:31:10;6.05;;;2.47;;
51927;SDS011;37953;52.806;18.270;2022-12-08T01:33:38;9.55;;;2.58;;
51927;SDS011;37953;52.806;18.270;2022-12-08T01:36:05;8.23;;;2.50;;
51927;SDS011;37953;52.806;18.270;2022-12-08T01:38:31;6.30;;;2.97;;
51927;SDS011;37953;52.806;18.270;2022-12-08T01:40:57;10.85;;;3.83;;
51927;SDS011;37953;52.806;18.270;2022-12-08T01:43:23;7.97;;;3.40;;
51927;SDS011;37953;52.806;18.270;2022-12-08T01:45:49;10.45;;;3.40;;
51927;SDS011;37953;52.806;18.270;2022-12-08T01:48:24;8.52;;;3.30;;
51927;SDS011;37953;52.806;18.270;2022-12-08T01:50:52;15.00;;;3.10;;
51927;SDS011;37953;52.806;18.270;2022-12-08T01:53:24;9.43;;;2.90;;
51927;SDS011;37953;52.806;18.270;2022-12-08T01:55:57;8.02;;;2.80;;
51927;SDS011;37953;52.806;18.270;2022-12-08T01:58:45;12.98;;;4.40;;
51927;SDS011;37953;52.806;18.270;2022-12-08T02:01:19;8.77;;;3.05;;
51927;SDS011;37953;52.806;18.270;2022-12-08T02:03:58;13.13;;;2.83;;
51927;SDS011;37953;52.806;18.270;2022-12-08T02:06:27;5.43;;;2.55;;
51927;SDS011;37953;52.806;18.270;2022-12-08T02:08:55;4.47;;;2.50;;
51927;SDS011;37953;52.806;18.270;2022-12-08T02:11:22;7.35;;;3.70;;
51927;SDS011;37953;52.806;18.270;2022-12-08T02:13:51;4.72;;;2.15;;
51927;SDS011;37953;52.806;18.270;2022-12-08T02:24:44;3.55;;;1.95;;
51927;SDS011;37953;52.806;18.270;2022-12-08T02:41:18;2.47;;;1.40;;
51927;SDS011;37953;52.806;18.270;2022-12-08T02:43:55;6.70;;;1.67;;
51927;SDS011;37953;52.806;18.270;2022-12-08T02:46:46;5.43;;;1.98;;
51927;SDS011;37953;52.806;18.270;2022-12-08T02:49:17;12.65;;;2.13;;
51927;SDS011;37953;52.806;18.270;2022-12-08T02:51:43;2.53;;;1.80;;
51927;SDS011;37953;52.806;18.270;2022-12-08T02:54:09;2.90;;;1.77;;
51927;SDS011;37953;52.806;18.270;2022-12-08T03:00:05;5.07;;;1.70;;
51927;SDS011;37953;52.806;18.270;2022-12-08T03:11:10;3.65;;;1.70;;
51927;SDS011;37953;52.806;18.270;2022-12-08T03:13:51;3.78;;;1.60;;
51927;SDS011;37953;52.806;18.270;2022-12-08T03:16:24;6.55;;;1.73;;
51927;SDS011;37953;52.806;18.270;2022-12-08T03:18:54;3.15;;;1.65;;
51927;SDS011;37953;52.806;18.270;2022-12-08T03:21:25;3.50;;;1.77;;
51927;SDS011;37953;52.806;18.270;2022-12-08T03:23:52;4.00;;;1.90;;
51927;SDS011;37953;52.806;18.270;2022-12-08T03:26:30;3.72;;;1.50;;
51927;SDS011;37953;52.806;18.270;2022-12-08T03:29:03;2.80;;;1.80;;
51927;SDS011;37953;52.806;18.270;2022-12-08T03:31:30;3.40;;;1.63;;
51927;SDS011;37953;52.806;18.270;2022-12-08T03:36:27;3.38;;;1.70;;
51927;SDS011;37953;52.806;18.270;2022-12-08T03:38:56;9.38;;;1.60;;
51927;SDS011;37953;52.806;18.270;2022-12-08T03:41:22;6.38;;;1.88;;
51927;SDS011;37953;52.806;18.270;2022-12-08T03:43:55;4.35;;;1.83;;
51927;SDS011;37953;52.806;18.270;2022-12-08T03:46:26;3.20;;;1.50;;
51927;SDS011;37953;52.806;18.270;2022-12-08T03:48:53;2.70;;;1.60;;
51927;SDS011;37953;52.806;18.270;2022-12-08T03:51:19;4.55;;;1.60;;
51927;SDS011;37953;52.806;18.270;2022-12-08T03:53:46;3.88;;;1.67;;
51927;SDS011;37953;52.806;18.270;2022-12-08T03:59:05;3.88;;;1.50;;
51927;SDS011;37953;52.806;18.270;2022-12-08T04:01:32;3.78;;;1.50;;
51927;SDS011;37953;52.806;18.270;2022-12-08T04:03:58;6.32;;;1.40;;
51927;SDS011;37953;52.806;18.270;2022-12-08T04:06:24;8.82;;;1.50;;
51927;SDS011;37953;52.806;18.270;2022-12-08T04:08:51;4.35;;;1.38;;
51927;SDS011;37953;52.806;18.270;2022-12-08T04:11:17;6.40;;;2.15;;
51927;SDS011;37953;52.806;18.270;2022-12-08T04:13:44;4.85;;;1.63;;
51927;SDS011;37953;52.806;18.270;2022-12-08T04:16:18;3.40;;;1.60;;
51927;SDS011;37953;52.806;18.270;2022-12-08T04:18:46;2.95;;;1.98;;
51927;SDS011;37953;52.806;18.270;2022-12-08T04:21:12;4.10;;;1.85;;
51927;SDS011;37953;52.806;18.270;2022-12-08T04:23:38;5.35;;;2.00;;
51927;SDS011;37953;52.806;18.270;2022-12-08T04:26:04;4.18;;;1.85;;
51927;SDS011;37953;52.806;18.270;2022-12-08T04:28:30;5.63;;;2.20;;
51927;SDS011;37953;52.806;18.270;2022-12-08T04:30:57;7.22;;;1.90;;
51927;SDS011;37953;52.806;18.270;2022-12-08T04:33:23;7.20;;;1.90;;
51927;SDS011;37953;52.806;18.270;2022-12-08T04:35:49;4.53;;;1.50;;
51927;SDS011;37953;52.806;18.270;2022-12-08T04:38:16;4.80;;;1.80;;
51927;SDS011;37953;52.806;18.270;2022-12-08T04:40:42;4.72;;;2.22;;
51927;SDS011;37953;52.806;18.270;2022-12-08T04:43:08;3.63;;;1.85;;
51927;SDS011;37953;52.806;18.270;2022-12-08T04:45:34;9.25;;;1.95;;
51927;SDS011;37953;52.806;18.270;2022-12-08T04:48:00;5.07;;;2.40;;
51927;SDS011;37953;52.806;18.270;2022-12-08T04:50:27;4.90;;;2.22;;
51927;SDS011;37953;52.806;18.270;2022-12-08T04:52:53;5.18;;;2.40;;
51927;SDS011;37953;52.806;18.270;2022-12-08T04:55:19;5.03;;;2.38;;
51927;SDS011;37953;52.806;18.270;2022-12-08T04:57:46;9.30;;;2.40;;
51927;SDS011;37953;52.806;18.270;2022-12-08T05:00:15;6.88;;;2.53;;
51927;SDS011;37953;52.806;18.270;2022-12-08T05:02:41;8.25;;;2.97;;
51927;SDS011;37953;52.806;18.270;2022-12-08T05:05:07;7.15;;;2.58;;
51927;SDS011;37953;52.806;18.270;2022-12-08T05:07:34;9.77;;;2.63;;
51927;SDS011;37953;52.806;18.270;2022-12-08T05:09:59;4.40;;;2.33;;
51927;SDS011;37953;52.806;18.270;2022-12-08T05:12:26;12.57;;;2.90;;
51927;SDS011;37953;52.806;18.270;2022-12-08T05:14:51;8.50;;;3.38;;
51927;SDS011;37953;52.806;18.270;2022-12-08T05:17:18;10.32;;;4.15;;
51927;SDS011;37953;52.806;18.270;2022-12-08T05:19:44;151.75;;;9.10;;
51927;SDS011;37953;52.806;18.270;2022-12-08T05:22:10;10.50;;;3.90;;
51927;SDS011;37953;52.806;18.270;2022-12-08T05:24:36;9.07;;;4.35;;
51927;SDS011;37953;52.806;18.270;2022-12-08T05:27:03;9.75;;;3.90;;
51927;SDS011;37953;52.806;18.270;2022-12-08T05:29:29;15.23;;;4.72;;
51927;SDS011;37953;52.806;18.270;2022-12-08T05:31:55;19.45;;;5.10;;
51927;SDS011;37953;52.806;18.270;2022-12-08T05:34:21;14.95;;;4.82;;
51927;SDS011;37953;52.806;18.270;2022-12-08T05:36:47;10.88;;;4.00;;
51927;SDS011;37953;52.806;18.270;2022-12-08T05:39:15;8.88;;;4.55;;
51927;SDS011;37953;52.806;18.270;2022-12-08T05:41:41;10.77;;;4.78;;
51927;SDS011;37953;52.806;18.270;2022-12-08T05:44:07;11.55;;;4.43;;
51927;SDS011;37953;52.806;18.270;2022-12-08T05:46:33;8.77;;;3.58;;
51927;SDS011;37953;52.806;18.270;2022-12-08T05:49:00;9.55;;;4.85;;
51927;SDS011;37953;52.806;18.270;2022-12-08T05:51:27;8.27;;;3.95;;
51927;SDS011;37953;52.806;18.270;2022-12-08T05:53:53;7.90;;;4.18;;
51927;SDS011;37953;52.806;18.270;2022-12-08T05:56:26;12.95;;;4.55;;
51927;SDS011;37953;52.806;18.270;2022-12-08T05:58:52;7.80;;;4.45;;
51927;SDS011;37953;52.806;18.270;2022-12-08T06:01:25;15.70;;;4.50;;
51927;SDS011;37953;52.806;18.270;2022-12-08T06:03:56;7.03;;;3.55;;
51927;SDS011;37953;52.806;18.270;2022-12-08T06:06:24;10.23;;;4.40;;
51927;SDS011;37953;52.806;18.270;2022-12-08T06:08:50;9.70;;;4.60;;
51927;SDS011;37953;52.806;18.270;2022-12-08T06:11:21;12.15;;;4.45;;
51927;SDS011;37953;52.806;18.270;2022-12-08T06:13:50;10.20;;;4.07;;
51927;SDS011;37953;52.806;18.270;2022-12-08T06:16:16;11.13;;;4.88;;
51927;SDS011;37953;52.806;18.270;2022-12-08T06:18:43;14.30;;;4.60;;
51927;SDS011;37953;52.806;18.270;2022-12-08T06:21:11;8.10;;;4.47;;
51927;SDS011;37953;52.806;18.270;2022-12-08T06:23:38;13.10;;;5.35;;
51927;SDS011;37953;52.806;18.270;2022-12-08T06:26:05;12.07;;;5.05;;
51927;SDS011;37953;52.806;18.270;2022-12-08T06:28:39;20.35;;;5.55;;
51927;SDS011;37953;52.806;18.270;2022-12-08T06:31:13;19.75;;;6.40;;
51927;SDS011;37953;52.806;18.270;2022-12-08T06:33:43;23.63;;;9.15;;
51927;SDS011;37953;52.806;18.270;2022-12-08T06:36:11;28.35;;;11.95;;
51927;SDS011;37953;52.806;18.270;2022-12-08T06:38:44;38.25;;;15.02;;
51927;SDS011;37953;52.806;18.270;2022-12-08T06:41:11;20.92;;;11.20;;
51927;SDS011;37953;52.806;18.270;2022-12-08T06:43:38;25.17;;;10.77;;
51927;SDS011;37953;52.806;18.270;2022-12-08T06:46:06;22.48;;;11.90;;
51927;SDS011;37953;52.806;18.270;2022-12-08T06:48:34;28.95;;;10.50;;
51927;SDS011;37953;52.806;18.270;2022-12-08T06:51:13;21.45;;;9.20;;
51927;SDS011;37953;52.806;18.270;2022-12-08T06:53:41;28.02;;;9.57;;
51927;SDS011;37953;52.806;18.270;2022-12-08T06:56:09;19.42;;;8.82;;
51927;SDS011;37953;52.806;18.270;2022-12-08T06:58:36;25.30;;;8.57;;
51927;SDS011;37953;52.806;18.270;2022-12-08T07:01:03;19.95;;;8.20;;
51927;SDS011;37953;52.806;18.270;2022-12-08T07:03:39;29.88;;;10.38;;
51927;SDS011;37953;52.806;18.270;2022-12-08T07:06:09;28.52;;;11.45;;
51927;SDS011;37953;52.806;18.270;2022-12-08T07:08:40;32.40;;;12.32;;
51927;SDS011;37953;52.806;18.270;2022-12-08T07:11:12;34.22;;;11.57;;
51927;SDS011;37953;52.806;18.270;2022-12-08T07:13:38;34.47;;;11.80;;
51927;SDS011;37953;52.806;18.270;2022-12-08T07:16:05;23.98;;;11.35;;
51927;SDS011;37953;52.806;18.270;2022-12-08T07:18:33;30.15;;;11.50;;
51927;SDS011;37953;52.806;18.270;2022-12-08T07:21:03;27.65;;;10.30;;
51927;SDS011;37953;52.806;18.270;2022-12-08T07:23:33;27.25;;;10.77;;
51927;SDS011;37953;52.806;18.270;2022-12-08T07:26:03;35.60;;;12.85;;
51927;SDS011;37953;52.806;18.270;2022-12-08T07:28:36;27.63;;;11.63;;
51927;SDS011;37953;52.806;18.270;2022-12-08T07:31:05;31.45;;;11.80;;
51927;SDS011;37953;52.806;18.270;2022-12-08T07:33:44;27.33;;;11.10;;
51927;SDS011;37953;52.806;18.270;2022-12-08T07:36:10;29.05;;;11.10;;
51927;SDS011;37953;52.806;18.270;2022-12-08T07:38:37;27.17;;;10.93;;
51927;SDS011;37953;52.806;18.270;2022-12-08T07:41:03;24.30;;;9.80;;
51927;SDS011;37953;52.806;18.270;2022-12-08T07:43:29;31.80;;;12.63;;
51927;SDS011;37953;52.806;18.270;2022-12-08T07:45:56;61.03;;;21.45;;
51927;SDS011;37953;52.806;18.270;2022-12-08T07:48:22;86.90;;;29.13;;
51927;SDS011;37953;52.806;18.270;2022-12-08T07:50:48;76.07;;;27.23;;
51927;SDS011;37953;52.806;18.270;2022-12-08T07:53:14;46.15;;;19.17;;
51927;SDS011;37953;52.806;18.270;2022-12-08T07:55:40;40.30;;;14.80;;
51927;SDS011;37953;52.806;18.270;2022-12-08T07:58:07;44.78;;;17.08;;
51927;SDS011;37953;52.806;18.270;2022-12-08T08:00:34;45.40;;;20.05;;
51927;SDS011;37953;52.806;18.270;2022-12-08T08:03:00;50.33;;;21.38;;
51927;SDS011;37953;52.806;18.270;2022-12-08T08:05:27;45.63;;;19.52;;
51927;SDS011;37953;52.806;18.270;2022-12-08T08:07:53;40.15;;;18.45;;
51927;SDS011;37953;52.806;18.270;2022-12-08T08:10:19;63.08;;;28.05;;
51927;SDS011;37953;52.806;18.270;2022-12-08T08:12:45;59.42;;;27.00;;
51927;SDS011;37953;52.806;18.270;2022-12-08T08:15:12;69.28;;;26.33;;
51927;SDS011;37953;52.806;18.270;2022-12-08T08:17:38;67.25;;;26.98;;
51927;SDS011;37953;52.806;18.270;2022-12-08T08:22:41;76.18;;;27.00;;
51927;SDS011;37953;52.806;18.270;2022-12-08T08:25:07;74.40;;;27.88;;
51927;SDS011;37953;52.806;18.270;2022-12-08T08:27:33;71.05;;;27.92;;
51927;SDS011;37953;52.806;18.270;2022-12-08T08:29:59;65.95;;;25.05;;
51927;SDS011;37953;52.806;18.270;2022-12-08T08:32:25;59.55;;;25.80;;
51927;SDS011;37953;52.806;18.270;2022-12-08T08:34:52;66.55;;;26.15;;
51927;SDS011;37953;52.806;18.270;2022-12-08T08:37:17;66.85;;;28.00;;
51927;SDS011;37953;52.806;18.270;2022-12-08T08:39:44;71.45;;;31.52;;
51927;SDS011;37953;52.806;18.270;2022-12-08T08:42:10;66.43;;;30.25;;
51927;SDS011;37953;52.806;18.270;2022-12-08T08:44:36;55.65;;;24.42;;
51927;SDS011;37953;52.806;18.270;2022-12-08T08:47:03;47.05;;;18.73;;
51927;SDS011;37953;52.806;18.270;2022-12-08T08:49:29;44.58;;;18.02;;
51927;SDS011;37953;52.806;18.270;2022-12-08T08:51:55;39.85;;;17.10;;
51927;SDS011;37953;52.806;18.270;2022-12-08T08:54:21;33.90;;;15.27;;
51927;SDS011;37953;52.806;18.270;2022-12-08T08:56:47;38.13;;;16.15;;
51927;SDS011;37953;52.806;18.270;2022-12-08T08:59:13;38.00;;;16.38;;
51927;SDS011;37953;52.806;18.270;2022-12-08T09:01:40;43.58;;;17.17;;
51927;SDS011;37953;52.806;18.270;2022-12-08T09:04:08;39.03;;;16.00;;
51927;SDS011;37953;52.806;18.270;2022-12-08T09:06:34;33.35;;;14.63;;
51927;SDS011;37953;52.806;18.270;2022-12-08T09:09:00;31.48;;;13.52;;
51927;SDS011;37953;52.806;18.270;2022-12-08T09:11:26;25.98;;;11.50;;
51927;SDS011;37953;52.806;18.270;2022-12-08T09:13:53;28.30;;;12.18;;
51927;SDS011;37953;52.806;18.270;2022-12-08T09:16:19;29.02;;;12.35;;
51927;SDS011;37953;52.806;18.270;2022-12-08T09:18:46;33.72;;;13.00;;
51927;SDS011;37953;52.806;18.270;2022-12-08T09:21:14;28.00;;;13.05;;
51927;SDS011;37953;52.806;18.270;2022-12-08T09:24:02;26.75;;;11.60;;
51927;SDS011;37953;52.806;18.270;2022-12-08T09:26:28;27.73;;;11.18;;
51927;SDS011;37953;52.806;18.270;2022-12-08T09:28:55;27.60;;;11.43;;
51927;SDS011;37953;52.806;18.270;2022-12-08T09:31:22;32.20;;;12.57;;
51927;SDS011;37953;52.806;18.270;2022-12-08T09:33:48;33.60;;;14.43;;
51927;SDS011;37953;52.806;18.270;2022-12-08T09:36:18;40.38;;;16.13;;
51927;SDS011;37953;52.806;18.270;2022-12-08T09:38:44;33.90;;;15.02;;
51927;SDS011;37953;52.806;18.270;2022-12-08T09:46:28;39.95;;;16.50;;
51927;SDS011;37953;52.806;18.270;2022-12-08T09:49:01;39.97;;;17.15;;
51927;SDS011;37953;52.806;18.270;2022-12-08T09:51:39;37.65;;;17.58;;
51927;SDS011;37953;52.806;18.270;2022-12-08T09:54:16;28.67;;;13.77;;
51927;SDS011;37953;52.806;18.270;2022-12-08T09:56:53;41.45;;;18.70;;
51927;SDS011;37953;52.806;18.270;2022-12-08T09:59:26;34.85;;;17.58;;
51927;SDS011;37953;52.806;18.270;2022-12-08T10:01:55;37.50;;;15.80;;
51927;SDS011;37953;52.806;18.270;2022-12-08T10:04:23;36.58;;;14.93;;
51927;SDS011;37953;52.806;18.270;2022-12-08T10:10:04;50.80;;;15.10;;
51927;SDS011;37953;52.806;18.270;2022-12-08T10:13:28;29.27;;;13.98;;
51927;SDS011;37953;52.806;18.270;2022-12-08T10:18:55;26.95;;;13.05;;
51927;SDS011;37953;52.806;18.270;2022-12-08T10:21:27;23.75;;;12.52;;
51927;SDS011;37953;52.806;18.270;2022-12-08T10:23:56;25.15;;;12.65;;
51927;SDS011;37953;52.806;18.270;2022-12-08T10:26:28;30.63;;;13.05;;
51927;SDS011;37953;52.806;18.270;2022-12-08T10:28:57;32.88;;;15.57;;
51927;SDS011;37953;52.806;18.270;2022-12-08T10:31:28;34.63;;;16.27;;
51927;SDS011;37953;52.806;18.270;2022-12-08T10:33:59;34.33;;;17.23;;
51927;SDS011;37953;52.806;18.270;2022-12-08T10:36:43;40.25;;;19.38;;
51927;SDS011;37953;52.806;18.270;2022-12-08T10:42:23;39.70;;;19.10;;
51927;SDS011;37953;52.806;18.270;2022-12-08T10:44:59;38.15;;;19.33;;
51927;SDS011;37953;52.806;18.270;2022-12-08T10:47:56;41.42;;;19.25;;
51927;SDS011;37953;52.806;18.270;2022-12-08T10:55:39;53.55;;;20.48;;
51927;SDS011;37953;52.806;18.270;2022-12-08T10:58:21;45.10;;;19.73;;
51927;SDS011;37953;52.806;18.270;2022-12-08T11:04:02;41.78;;;17.95;;
51927;SDS011;37953;52.806;18.270;2022-12-08T11:06:56;42.22;;;19.23;;
51927;SDS011;37953;52.806;18.270;2022-12-08T11:09:23;49.28;;;21.33;;
51927;SDS011;37953;52.806;18.270;2022-12-08T11:12:05;46.58;;;21.92;;
51927;SDS011;37953;52.806;18.270;2022-12-08T11:17:25;55.95;;;24.38;;
51927;SDS011;37953;52.806;18.270;2022-12-08T11:20:00;59.13;;;26.55;;
51927;SDS011;37953;52.806;18.270;2022-12-08T11:22:31;63.78;;;29.20;;
51927;SDS011;37953;52.806;18.270;2022-12-08T11:27:39;52.25;;;25.67;;
51927;SDS011;37953;52.806;18.270;2022-12-08T11:30:16;54.53;;;25.02;;
51927;SDS011;37953;52.806;18.270;2022-12-08T11:32:48;45.47;;;22.50;;
51927;SDS011;37953;52.806;18.270;2022-12-08T11:38:32;49.05;;;24.33;;
51927;SDS011;37953;52.806;18.270;2022-12-08T11:41:10;56.83;;;26.67;;
51927;SDS011;37953;52.806;18.270;2022-12-08T11:49:09;46.28;;;22.48;;
51927;SDS011;37953;52.806;18.270;2022-12-08T11:59:27;41.97;;;21.13;;
51927;SDS011;37953;52.806;18.270;2022-12-08T12:02:18;35.05;;;17.83;;
51927;SDS011;37953;52.806;18.270;2022-12-08T12:14:20;35.10;;;18.63;;
51927;SDS011;37953;52.806;18.270;2022-12-08T12:17:18;46.40;;;20.83;;
51927;SDS011;37953;52.806;18.270;2022-12-08T12:20:23;38.67;;;18.23;;
51927;SDS011;37953;52.806;18.270;2022-12-08T12:23:01;37.03;;;18.08;;
51927;SDS011;37953;52.806;18.270;2022-12-08T12:25:55;35.60;;;16.27;;
51927;SDS011;37953;52.806;18.270;2022-12-08T12:28:26;28.98;;;16.15;;
51927;SDS011;37953;52.806;18.270;2022-12-08T12:31:09;33.38;;;16.02;;
51927;SDS011;37953;52.806;18.270;2022-12-08T12:33:41;31.05;;;16.00;;
51927;SDS011;37953;52.806;18.270;2022-12-08T12:36:10;30.77;;;15.27;;
51927;SDS011;37953;52.806;18.270;2022-12-08T12:38:44;41.47;;;16.98;;
51927;SDS011;37953;52.806;18.270;2022-12-08T12:52:45;34.28;;;16.05;;
51927;SDS011;37953;52.806;18.270;2022-12-08T12:57:24;33.15;;;15.50;;
51927;SDS011;37953;52.806;18.270;2022-12-08T13:05:26;25.98;;;14.20;;
51927;SDS011;37953;52.806;18.270;2022-12-08T13:07:56;34.17;;;16.23;;
51927;SDS011;37953;52.806;18.270;2022-12-08T13:10:28;40.03;;;19.85;;
51927;SDS011;37953;52.806;18.270;2022-12-08T13:13:04;38.95;;;18.73;;
51927;SDS011;37953;52.806;18.270;2022-12-08T13:20:52;33.78;;;17.60;;
51927;SDS011;37953;52.806;18.270;2022-12-08T13:31:44;31.67;;;16.35;;
51927;SDS011;37953;52.806;18.270;2022-12-08T13:34:19;37.28;;;15.98;;
51927;SDS011;37953;52.806;18.270;2022-12-08T13:37:02;29.27;;;15.18;;
51927;SDS011;37953;52.806;18.270;2022-12-08T13:39:36;28.48;;;15.98;;
51927;SDS011;37953;52.806;18.270;2022-12-08T13:42:23;36.22;;;16.00;;
51927;SDS011;37953;52.806;18.270;2022-12-08T13:45:24;33.70;;;16.65;;
51927;SDS011;37953;52.806;18.270;2022-12-08T13:50:45;31.67;;;16.67;;
51927;SDS011;37953;52.806;18.270;2022-12-08T13:53:19;59.10;;;26.77;;
51927;SDS011;37953;52.806;18.270;2022-12-08T13:56:01;39.13;;;20.00;;
51927;SDS011;37953;52.806;18.270;2022-12-08T13:58:33;30.58;;;16.70;;
51927;SDS011;37953;52.806;18.270;2022-12-08T14:03:54;28.08;;;15.68;;
51927;SDS011;37953;52.806;18.270;2022-12-08T14:06:30;37.42;;;16.55;;
51927;SDS011;37953;52.806;18.270;2022-12-08T14:09:12;35.42;;;17.73;;
51927;SDS011;37953;52.806;18.270;2022-12-08T14:11:44;42.75;;;17.75;;
51927;SDS011;37953;52.806;18.270;2022-12-08T14:14:20;33.30;;;17.05;;
51927;SDS011;37953;52.806;18.270;2022-12-08T14:16:54;42.10;;;21.80;;
51927;SDS011;37953;52.806;18.270;2022-12-08T14:19:26;42.35;;;23.70;;
51927;SDS011;37953;52.806;18.270;2022-12-08T14:22:02;41.50;;;23.02;;
51927;SDS011;37953;52.806;18.270;2022-12-08T14:24:48;48.45;;;23.92;;
51927;SDS011;37953;52.806;18.270;2022-12-08T14:27:20;35.17;;;19.55;;
51927;SDS011;37953;52.806;18.270;2022-12-08T14:29:49;33.22;;;17.95;;
51927;SDS011;37953;52.806;18.270;2022-12-08T14:32:25;35.45;;;17.75;;
51927;SDS011;37953;52.806;18.270;2022-12-08T14:35:10;37.20;;;18.88;;
51927;SDS011;37953;52.806;18.270;2022-12-08T14:37:47;45.85;;;23.10;;
51927;SDS011;37953;52.806;18.270;2022-12-08T14:45:33;44.03;;;24.63;;
51927;SDS011;37953;52.806;18.270;2022-12-08T14:53:53;52.55;;;25.42;;
51927;SDS011;37953;52.806;18.270;2022-12-08T14:56:52;57.88;;;32.90;;
51927;SDS011;37953;52.806;18.270;2022-12-08T14:59:29;82.40;;;40.95;;
51927;SDS011;37953;52.806;18.270;2022-12-08T15:07:44;62.05;;;30.20;;
51927;SDS011;37953;52.806;18.270;2022-12-08T15:10:28;63.70;;;31.20;;
51927;SDS011;37953;52.806;18.270;2022-12-08T15:15:50;103.75;;;45.70;;
51927;SDS011;37953;52.806;18.270;2022-12-08T15:21:06;102.53;;;49.50;;
51927;SDS011;37953;52.806;18.270;2022-12-08T15:26:23;74.20;;;36.13;;
51927;SDS011;37953;52.806;18.270;2022-12-08T15:28:51;63.53;;;31.70;;
51927;SDS011;37953;52.806;18.270;2022-12-08T15:31:24;66.95;;;29.77;;
51927;SDS011;37953;52.806;18.270;2022-12-08T15:33:50;65.28;;;30.38;;
51927;SDS011;37953;52.806;18.270;2022-12-08T15:36:16;63.45;;;30.65;;
51927;SDS011;37953;52.806;18.270;2022-12-08T15:38:42;70.90;;;31.90;;
51927;SDS011;37953;52.806;18.270;2022-12-08T15:41:08;67.00;;;31.48;;
51927;SDS011;37953;52.806;18.270;2022-12-08T15:43:35;69.22;;;32.28;;
51927;SDS011;37953;52.806;18.270;2022-12-08T15:46:01;64.85;;;32.00;;
51927;SDS011;37953;52.806;18.270;2022-12-08T15:48:29;101.20;;;41.33;;
51927;SDS011;37953;52.806;18.270;2022-12-08T15:50:56;193.10;;;51.10;;
51927;SDS011;37953;52.806;18.270;2022-12-08T15:53:22;96.45;;;43.80;;
51927;SDS011;37953;52.806;18.270;2022-12-08T15:55:49;89.65;;;39.78;;
51927;SDS011;37953;52.806;18.270;2022-12-08T15:58:19;82.28;;;36.55;;
51927;SDS011;37953;52.806;18.270;2022-12-08T16:00:53;84.25;;;35.53;;
51927;SDS011;37953;52.806;18.270;2022-12-08T16:03:26;92.88;;;37.50;;
51927;SDS011;37953;52.806;18.270;2022-12-08T16:05:54;99.10;;;39.63;;
51927;SDS011;37953;52.806;18.270;2022-12-08T16:08:26;83.68;;;35.25;;
51927;SDS011;37953;52.806;18.270;2022-12-08T16:10:54;86.15;;;37.05;;
51927;SDS011;37953;52.806;18.270;2022-12-08T16:13:45;76.88;;;32.65;;
51927;SDS011;37953;52.806;18.270;2022-12-08T16:16:18;74.03;;;30.48;;
51927;SDS011;37953;52.806;18.270;2022-12-08T16:18:48;70.82;;;30.63;;
51927;SDS011;37953;52.806;18.270;2022-12-08T16:21:15;77.78;;;33.65;;
51927;SDS011;37953;52.806;18.270;2022-12-08T16:23:42;85.57;;;33.10;;
51927;SDS011;37953;52.806;18.270;2022-12-08T16:26:21;72.40;;;30.42;;
51927;SDS011;37953;52.806;18.270;2022-12-08T16:28:48;72.05;;;30.25;;
51927;SDS011;37953;52.806;18.270;2022-12-08T16:31:14;65.70;;;31.67;;
51927;SDS011;37953;52.806;18.270;2022-12-08T16:33:40;75.38;;;31.90;;
51927;SDS011;37953;52.806;18.270;2022-12-08T16:36:08;64.90;;;30.17;;
51927;SDS011;37953;52.806;18.270;2022-12-08T16:38:34;69.15;;;29.88;;
51927;SDS011;37953;52.806;18.270;2022-12-08T16:41:01;65.65;;;28.60;;
51927;SDS011;37953;52.806;18.270;2022-12-08T16:43:45;66.30;;;27.38;;
51927;SDS011;37953;52.806;18.270;2022-12-08T16:46:20;65.53;;;28.45;;
51927;SDS011;37953;52.806;18.270;2022-12-08T16:48:55;60.80;;;27.83;;
51927;SDS011;37953;52.806;18.270;2022-12-08T16:51:24;59.60;;;27.17;;
51927;SDS011;37953;52.806;18.270;2022-12-08T16:53:50;53.67;;;26.30;;
51927;SDS011;37953;52.806;18.270;2022-12-08T16:56:17;54.15;;;25.88;;
51927;SDS011;37953;52.806;18.270;2022-12-08T16:58:45;54.60;;;25.85;;
51927;SDS011;37953;52.806;18.270;2022-12-08T17:01:15;58.22;;;26.48;;
51927;SDS011;37953;52.806;18.270;2022-12-08T17:03:48;61.60;;;29.42;;
51927;SDS011;37953;52.806;18.270;2022-12-08T17:06:16;66.35;;;31.25;;
51927;SDS011;37953;52.806;18.270;2022-12-08T17:08:48;62.03;;;28.52;;
51927;SDS011;37953;52.806;18.270;2022-12-08T17:11:19;62.78;;;29.10;;
51927;SDS011;37953;52.806;18.270;2022-12-08T17:13:52;59.00;;;27.83;;
51927;SDS011;37953;52.806;18.270;2022-12-08T17:16:19;59.58;;;26.17;;
51927;SDS011;37953;52.806;18.270;2022-12-08T17:18:45;62.90;;;26.92;;
51927;SDS011;37953;52.806;18.270;2022-12-08T17:23:41;71.50;;;31.52;;